createdAt,value
2018-03-17T00:00:05.306Z,3.70
2018-03-17T00:02:33.638Z,3.70
2018-03-17T00:05:01.947Z,3.60
2018-03-17T00:07:30.283Z,3.60
2018-03-17T00:09:58.603Z,3.60
2018-03-17T00:12:26.934Z,3.50
2018-03-17T00:14:55.246Z,3.50
2018-03-17T00:17:23.574Z,3.60
2018-03-17T00:19:51.887Z,3.60
2018-03-17T00:22:20.219Z,3.60
2018-03-17T00:24:48.548Z,3.50
2018-03-17T00:27:16.884Z,3.50
2018-03-17T00:29:45.195Z,3.50
2018-03-17T00:32:13.524Z,3.40
2018-03-17T00:34:41.887Z,3.40
2018-03-17T00:37:10.218Z,3.40
2018-03-17T00:39:38.523Z,3.50
2018-03-17T00:42:06.855Z,3.50
2018-03-17T00:44:35.162Z,3.40
2018-03-17T00:47:03.496Z,3.40
2018-03-17T00:49:31.827Z,3.40
2018-03-17T00:52:00.159Z,3.40
2018-03-17T00:54:28.474Z,3.40
2018-03-17T00:56:56.812Z,3.30
2018-03-17T00:59:25.130Z,3.40
2018-03-17T01:01:53.470Z,3.30
2018-03-17T01:04:21.786Z,3.30
2018-03-17T01:06:50.117Z,3.30
2018-03-17T01:09:18.434Z,3.40
2018-03-17T01:11:46.784Z,3.40
2018-03-17T01:14:15.088Z,3.40
2018-03-17T01:16:43.396Z,3.30
2018-03-17T01:19:11.727Z,3.30
2018-03-17T01:21:40.043Z,3.20
2018-03-17T01:24:08.405Z,3.20
2018-03-17T01:26:36.744Z,3.20
2018-03-17T01:29:05.075Z,3.20
2018-03-17T01:31:33.391Z,3.10
2018-03-17T01:34:01.731Z,3.10
2018-03-17T01:36:30.044Z,3.10
2018-03-17T01:38:58.390Z,3.20
2018-03-17T01:41:26.718Z,3.10
2018-03-17T01:43:55.048Z,3.10
2018-03-17T01:46:23.360Z,3.10
2018-03-17T01:48:51.687Z,3.10
2018-03-17T01:51:19.996Z,3.20
2018-03-17T01:53:48.333Z,3.20
2018-03-17T01:56:16.644Z,3.30
2018-03-17T01:58:44.976Z,3.30
2018-03-17T02:01:13.293Z,3.20
2018-03-17T02:03:41.627Z,3.20
2018-03-17T02:06:09.932Z,3.20
2018-03-17T02:08:38.272Z,3.20
2018-03-17T02:11:06.599Z,3.20
2018-03-17T02:13:34.938Z,3.20
2018-03-17T02:16:03.248Z,3.10
2018-03-17T02:18:31.574Z,3.10
2018-03-17T02:20:59.885Z,3.10
2018-03-17T02:23:28.215Z,3.20
2018-03-17T02:25:56.543Z,3.10
2018-03-17T02:28:24.879Z,3.10
2018-03-17T02:30:53.200Z,3.10
2018-03-17T02:33:21.527Z,3.10
2018-03-17T02:35:48.603Z,3.10
2018-03-17T02:38:16.937Z,3.20
2018-03-17T02:40:45.252Z,3.20
2018-03-17T02:43:13.587Z,3.20
2018-03-17T02:45:41.900Z,3.20
2018-03-17T02:48:10.238Z,3.20
2018-03-17T02:50:38.550Z,3.20
2018-03-17T02:53:06.907Z,3.20
2018-03-17T02:55:35.221Z,3.20
2018-03-17T02:58:03.530Z,3.10
2018-03-17T03:00:31.864Z,3.10
2018-03-17T03:03:00.179Z,3.00
2018-03-17T03:05:28.512Z,2.90
2018-03-17T03:07:56.828Z,2.90
2018-03-17T03:10:25.163Z,2.80
2018-03-17T03:12:53.479Z,2.80
2018-03-17T03:15:21.824Z,2.80
2018-03-17T03:17:50.139Z,2.80
2018-03-17T03:20:18.472Z,2.60
2018-03-17T03:22:46.785Z,2.60
2018-03-17T03:25:15.121Z,2.50
2018-03-17T03:27:43.440Z,2.50
2018-03-17T03:30:11.780Z,2.50
2018-03-17T03:32:39.396Z,2.40
2018-03-17T03:35:07.749Z,2.40
2018-03-17T03:37:36.063Z,2.40
2018-03-17T03:40:04.398Z,2.40
2018-03-17T03:42:32.712Z,2.40
2018-03-17T03:45:01.131Z,2.40
2018-03-17T03:47:29.440Z,2.40
2018-03-17T03:49:57.771Z,2.40
2018-03-17T03:52:26.086Z,2.30
2018-03-17T03:54:54.424Z,2.30
2018-03-17T03:57:22.740Z,2.30
2018-03-17T03:59:51.074Z,2.30
2018-03-17T04:02:19.400Z,2.20
2018-03-17T04:04:47.747Z,2.20
2018-03-17T04:07:16.071Z,2.10
2018-03-17T04:09:44.411Z,2.10
2018-03-17T04:12:12.750Z,2.10
2018-03-17T04:14:41.091Z,2.10
2018-03-17T04:17:09.413Z,2.00
2018-03-17T04:19:37.750Z,2.00
2018-03-17T04:22:06.069Z,2.00
2018-03-17T04:24:34.407Z,2.00
2018-03-17T04:27:02.726Z,2.00
2018-03-17T04:29:31.082Z,2.10
2018-03-17T04:31:59.398Z,2.00
2018-03-17T04:34:27.751Z,2.00
2018-03-17T04:36:56.075Z,1.90
2018-03-17T04:39:24.392Z,1.90
2018-03-17T04:41:52.724Z,1.80
2018-03-17T04:44:21.047Z,1.80
2018-03-17T04:46:49.383Z,1.70
2018-03-17T04:49:17.695Z,1.70
2018-03-17T04:51:46.030Z,1.60
2018-03-17T04:54:14.354Z,1.60
2018-03-17T04:56:42.691Z,1.60
2018-03-17T04:59:11.004Z,1.60
2018-03-17T05:01:39.335Z,1.50
2018-03-17T05:04:07.653Z,1.50
2018-03-17T05:06:35.999Z,1.40
2018-03-17T05:09:04.310Z,1.40
2018-03-17T05:11:32.672Z,1.40
2018-03-17T05:14:00.985Z,1.40
2018-03-17T05:16:29.330Z,1.30
2018-03-17T05:18:57.712Z,1.40
2018-03-17T05:21:26.046Z,1.40
2018-03-17T05:23:54.355Z,1.40
2018-03-17T05:26:22.705Z,1.40
2018-03-17T05:28:51.021Z,1.40
2018-03-17T05:31:19.356Z,1.40
2018-03-17T05:33:47.671Z,1.40
2018-03-17T05:36:16.003Z,1.40
2018-03-17T05:38:44.324Z,1.30
2018-03-17T05:41:12.675Z,1.30
2018-03-17T05:43:40.227Z,1.20
2018-03-17T05:46:08.566Z,1.20
2018-03-17T05:48:36.883Z,1.10
2018-03-17T05:51:05.221Z,1.10
2018-03-17T05:53:33.543Z,1.10
2018-03-17T05:56:01.883Z,1.10
2018-03-17T05:58:30.210Z,1.10
2018-03-17T06:00:58.550Z,1.00
2018-03-17T06:03:26.870Z,1.00
2018-03-17T06:05:55.202Z,0.90
2018-03-17T06:08:23.527Z,0.90
2018-03-17T06:10:51.868Z,0.80
2018-03-17T06:13:20.183Z,0.80
2018-03-17T06:15:48.518Z,0.70
2018-03-17T06:18:16.830Z,0.80
2018-03-17T06:20:45.193Z,0.80
2018-03-17T06:23:13.514Z,0.70
2018-03-17T06:25:41.830Z,0.70
2018-03-17T06:28:10.170Z,0.80
2018-03-17T06:30:38.487Z,0.80
2018-03-17T06:33:06.848Z,0.80
2018-03-17T06:35:35.160Z,0.80
2018-03-17T06:38:03.586Z,0.70
2018-03-17T06:40:31.904Z,0.70
2018-03-17T06:43:00.250Z,0.60
2018-03-17T06:45:28.570Z,0.70
2018-03-17T06:47:56.925Z,0.70
2018-03-17T06:50:25.248Z,0.70
2018-03-17T06:52:53.587Z,0.70
2018-03-17T06:55:21.908Z,0.70
2018-03-17T06:57:50.246Z,0.70
2018-03-17T07:00:18.570Z,0.60
2018-03-17T07:02:46.911Z,0.60
2018-03-17T07:05:15.222Z,0.60
2018-03-17T07:07:43.559Z,0.50
2018-03-17T07:10:11.885Z,0.50
2018-03-17T07:12:40.219Z,0.50
2018-03-17T07:15:08.534Z,0.50
2018-03-17T07:17:36.867Z,0.50
2018-03-17T07:20:05.183Z,0.50
2018-03-17T07:22:33.513Z,0.50
2018-03-17T07:25:01.830Z,0.50
2018-03-17T07:27:30.176Z,0.50
2018-03-17T07:29:58.490Z,0.60
2018-03-17T07:32:26.836Z,0.50
2018-03-17T07:34:55.151Z,0.50
2018-03-17T07:37:23.504Z,0.50
2018-03-17T07:39:51.821Z,0.40
2018-03-17T07:42:20.158Z,0.40
2018-03-17T07:44:48.476Z,0.30
2018-03-17T07:47:16.848Z,0.30
2018-03-17T07:49:45.157Z,0.40
2018-03-17T07:52:13.494Z,0.40
2018-03-17T07:54:41.824Z,0.40
2018-03-17T07:57:10.154Z,0.40
2018-03-17T07:59:38.474Z,0.40
2018-03-17T08:02:06.798Z,0.40
2018-03-17T08:04:35.133Z,0.40
2018-03-17T08:07:03.442Z,0.50
2018-03-17T08:09:31.779Z,0.60
2018-03-17T08:12:00.093Z,0.70
2018-03-17T08:14:28.444Z,0.80
2018-03-17T08:16:56.760Z,0.90
2018-03-17T08:19:25.094Z,0.90
2018-03-17T08:21:53.408Z,1.00
2018-03-17T08:24:21.754Z,1.20
2018-03-17T08:26:50.080Z,1.20
2018-03-17T08:29:18.418Z,1.20
2018-03-17T08:31:46.735Z,1.20
2018-03-17T08:34:15.081Z,1.30
2018-03-17T08:36:43.400Z,1.30
2018-03-17T08:39:11.809Z,1.30
2018-03-17T08:41:40.138Z,1.30
2018-03-17T08:44:08.473Z,1.40
2018-03-17T08:46:36.787Z,1.60
2018-03-17T08:49:04.368Z,1.50
2018-03-17T08:51:32.714Z,1.70
2018-03-17T08:54:01.051Z,1.70
2018-03-17T08:56:28.602Z,1.70
2018-03-17T08:58:56.983Z,1.70
2018-03-17T09:01:25.299Z,1.60
2018-03-17T09:03:53.714Z,1.60
2018-03-17T09:06:22.036Z,1.50
2018-03-17T09:08:50.374Z,1.40
2018-03-17T09:11:18.687Z,1.40
2018-03-17T09:13:47.023Z,1.40
2018-03-17T09:16:15.346Z,1.30
2018-03-17T09:18:43.720Z,1.30
2018-03-17T09:21:12.043Z,1.20
2018-03-17T09:23:40.386Z,1.10
2018-03-17T09:26:08.703Z,1.00
2018-03-17T09:28:37.036Z,1.00
2018-03-17T09:31:05.364Z,0.90
2018-03-17T09:33:33.713Z,0.70
2018-03-17T09:36:02.018Z,0.60
2018-03-17T09:38:30.369Z,0.60
2018-03-17T09:40:58.712Z,0.60
2018-03-17T09:43:27.076Z,0.70
2018-03-17T09:45:55.397Z,0.80
2018-03-17T09:48:23.708Z,0.90
2018-03-17T09:50:52.047Z,0.90
2018-03-17T09:53:20.382Z,0.80
2018-03-17T09:55:48.724Z,0.70
2018-03-17T09:58:17.070Z,0.60
2018-03-17T10:00:45.388Z,0.50
2018-03-17T10:03:13.708Z,0.40
2018-03-17T10:05:42.053Z,0.30
2018-03-17T10:08:10.366Z,0.20
2018-03-17T10:10:38.755Z,0.10
2018-03-17T10:13:07.082Z,0.00
2018-03-17T10:15:35.422Z,0.00
2018-03-17T10:18:03.733Z,0.00
2018-03-17T10:20:32.071Z,0.00
2018-03-17T10:23:00.391Z,0.00
2018-03-17T10:25:28.732Z,0.00
2018-03-17T10:27:57.058Z,-0.10
2018-03-17T10:30:25.401Z,-0.10
2018-03-17T10:32:53.720Z,0.00
2018-03-17T10:35:22.052Z,0.00
2018-03-17T10:37:50.371Z,0.00
2018-03-17T10:40:18.715Z,0.00
2018-03-17T10:42:47.040Z,-0.10
2018-03-17T10:45:15.390Z,-0.10
2018-03-17T10:47:43.734Z,-0.10
2018-03-17T10:50:12.171Z,-0.10
2018-03-17T10:52:40.748Z,-0.20
2018-03-17T10:55:09.115Z,-0.20
2018-03-17T10:57:37.443Z,-0.20
2018-03-17T11:00:05.793Z,-0.10
2018-03-17T11:02:39.834Z,-0.10
2018-03-17T11:05:08.242Z,-0.10
2018-03-17T11:07:36.615Z,-0.10
2018-03-17T11:10:04.964Z,-0.20
2018-03-17T11:12:33.278Z,-0.10
2018-03-17T11:15:01.632Z,-0.10
2018-03-17T11:17:29.998Z,-0.10
2018-03-17T11:19:58.340Z,-0.20
2018-03-17T11:22:26.661Z,-0.20
2018-03-17T11:24:55.004Z,-0.30
2018-03-17T11:27:22.556Z,-0.30
2018-03-17T11:29:50.894Z,-0.40
2018-03-17T11:32:19.220Z,-0.50
2018-03-17T11:34:47.690Z,-0.50
2018-03-17T11:37:16.071Z,-0.40
2018-03-17T11:39:44.433Z,-0.40
2018-03-17T11:42:12.835Z,-0.40
2018-03-17T11:44:41.271Z,-0.50
2018-03-17T11:47:09.642Z,-0.50
2018-03-17T11:49:37.976Z,-0.40
2018-03-17T11:52:06.380Z,-0.30
2018-03-17T11:54:34.699Z,-0.30
2018-03-17T11:57:03.059Z,-0.30
2018-03-17T11:59:31.398Z,-0.30
2018-03-17T12:01:59.762Z,-0.40
2018-03-17T12:04:28.081Z,-0.40
2018-03-17T12:06:56.431Z,-0.40
2018-03-17T12:09:24.747Z,-0.30
2018-03-17T12:11:53.115Z,-0.30
2018-03-17T12:14:21.435Z,-0.30
2018-03-17T12:16:49.798Z,-0.30
2018-03-17T12:19:18.121Z,-0.50
2018-03-17T12:21:46.467Z,-0.50
2018-03-17T12:24:14.955Z,-0.50
2018-03-17T12:26:43.341Z,-0.60
2018-03-17T12:29:11.885Z,-0.60
2018-03-17T12:31:40.246Z,-0.70
2018-03-17T12:34:09.149Z,-0.80
2018-03-17T12:36:37.496Z,-0.80
2018-03-17T12:39:05.810Z,-0.70
2018-03-17T12:41:34.148Z,-0.60
2018-03-17T12:44:02.475Z,-0.60
2018-03-17T12:46:30.812Z,-0.70
2018-03-17T12:48:59.172Z,-0.80
2018-03-17T12:51:27.534Z,-0.80
2018-03-17T12:53:55.872Z,-0.80
2018-03-17T12:56:24.218Z,-0.80
2018-03-17T12:58:52.546Z,-0.90
2018-03-17T13:01:20.891Z,-1.00
2018-03-17T13:03:49.236Z,-1.00
2018-03-17T13:06:17.632Z,-1.00
2018-03-17T13:08:46.053Z,-1.10
2018-03-17T13:11:14.532Z,-1.10
2018-03-17T13:13:42.259Z,-1.10
2018-03-17T13:16:10.698Z,-1.10
2018-03-17T13:18:39.095Z,-1.00
2018-03-17T13:21:07.457Z,-0.90
2018-03-17T13:23:35.806Z,-0.90
2018-03-17T13:26:04.136Z,-0.90
2018-03-17T13:28:32.485Z,-0.90
2018-03-17T13:31:00.808Z,-0.90
2018-03-17T13:33:29.198Z,-1.00
2018-03-17T13:36:09.573Z,-1.00
2018-03-17T13:38:37.956Z,-1.00
2018-03-17T13:41:06.290Z,-1.10
2018-03-17T13:43:34.627Z,-1.10
2018-03-17T13:46:02.951Z,-1.10
2018-03-17T13:48:31.295Z,-1.10
2018-03-17T13:50:59.631Z,-1.10
2018-03-17T13:53:27.977Z,-1.20
2018-03-17T13:55:56.298Z,-1.20
2018-03-17T13:58:24.639Z,-1.20
2018-03-17T14:00:52.960Z,-1.20
2018-03-17T14:03:21.312Z,-1.20
2018-03-17T14:05:49.633Z,-1.20
2018-03-17T14:08:17.996Z,-1.30
2018-03-17T14:10:46.315Z,-1.40
2018-03-17T14:13:14.758Z,-1.40
2018-03-17T14:15:43.234Z,-1.40
2018-03-17T14:18:11.865Z,-1.40
2018-03-17T14:20:40.331Z,-1.40
2018-03-17T14:23:08.935Z,-1.50
2018-03-17T14:25:37.316Z,-1.40
2018-03-17T14:28:05.669Z,-1.50
2018-03-17T14:30:34.007Z,-1.40
2018-03-17T14:33:02.357Z,-1.40
2018-03-17T14:35:30.695Z,-1.30
2018-03-17T14:37:59.039Z,-1.30
2018-03-17T14:40:27.595Z,-1.30
2018-03-17T14:42:55.985Z,-1.30
2018-03-17T14:45:24.316Z,-1.30
2018-03-17T14:47:52.653Z,-1.30
2018-03-17T14:50:20.979Z,-1.40
2018-03-17T14:52:49.331Z,-1.40
2018-03-17T14:55:17.651Z,-1.50
2018-03-17T14:57:46.143Z,-1.60
2018-03-17T15:00:14.681Z,-1.70
2018-03-17T15:02:43.034Z,-1.70
2018-03-17T15:05:11.528Z,-1.60
2018-03-17T15:07:40.061Z,-1.60
2018-03-17T15:10:09.530Z,-1.50
2018-03-17T15:12:37.955Z,-1.60
2018-03-17T15:15:06.320Z,-1.60
2018-03-17T15:17:34.788Z,-1.60
2018-03-17T15:20:03.137Z,-1.60
2018-03-17T15:22:31.454Z,-1.70
2018-03-17T15:24:59.823Z,-1.70
2018-03-17T15:27:28.157Z,-1.80
2018-03-17T15:29:56.502Z,-1.90
2018-03-17T15:32:24.833Z,-2.00
2018-03-17T15:34:53.168Z,-1.90
2018-03-17T15:37:21.498Z,-1.90
2018-03-17T15:39:49.840Z,-1.90
2018-03-17T15:42:18.177Z,-1.90
2018-03-17T15:44:46.645Z,-1.90
2018-03-17T15:47:15.039Z,-1.90
2018-03-17T15:49:43.439Z,-2.00
2018-03-17T15:52:11.878Z,-2.00
2018-03-17T15:54:40.386Z,-2.00
2018-03-17T15:57:09.691Z,-1.90
2018-03-17T15:59:38.184Z,-1.90
2018-03-17T16:02:06.547Z,-2.00
2018-03-17T16:04:34.897Z,-2.00
2018-03-17T16:07:03.243Z,-2.10
2018-03-17T16:09:31.583Z,-2.10
2018-03-17T16:11:59.911Z,-2.00
2018-03-17T16:14:28.255Z,-2.10
2018-03-17T16:16:56.578Z,-2.10
2018-03-17T16:19:24.921Z,-2.00
2018-03-17T16:21:53.254Z,-2.00
2018-03-17T16:24:21.611Z,-2.10
2018-03-17T16:26:49.937Z,-2.10
2018-03-17T16:29:18.279Z,-2.10
2018-03-17T16:31:46.636Z,-2.20
2018-03-17T16:34:14.983Z,-2.20
2018-03-17T16:36:43.332Z,-2.20
2018-03-17T16:39:11.747Z,-2.20
2018-03-17T16:41:40.033Z,-2.20
2018-03-17T16:44:08.363Z,-2.20
2018-03-17T16:46:36.731Z,-2.20
2018-03-17T16:49:05.052Z,-2.30
2018-03-17T16:51:33.390Z,-2.30
2018-03-17T16:54:01.703Z,-2.30
2018-03-17T16:56:30.044Z,-2.20
2018-03-17T16:58:57.610Z,-2.30
2018-03-17T17:01:25.965Z,-2.20
2018-03-17T17:03:54.292Z,-2.20
2018-03-17T17:06:22.631Z,-2.20
2018-03-17T17:08:50.959Z,-2.30
2018-03-17T17:11:19.325Z,-2.30
2018-03-17T17:13:47.651Z,-2.30
2018-03-17T17:16:15.991Z,-2.30
2018-03-17T17:18:44.311Z,-2.30
2018-03-17T17:21:12.651Z,-2.30
2018-03-17T17:23:40.999Z,-2.40
2018-03-17T17:26:09.358Z,-2.40
2018-03-17T17:28:37.704Z,-2.40
2018-03-17T17:31:06.046Z,-2.40
2018-03-17T17:33:34.475Z,-2.40
2018-03-17T17:36:02.923Z,-2.40
2018-03-17T17:38:30.451Z,-2.40
2018-03-17T17:40:58.797Z,-2.40
2018-03-17T17:43:27.119Z,-2.40
2018-03-17T17:45:55.571Z,-2.40
2018-03-17T17:48:23.818Z,-2.40
2018-03-17T17:50:52.180Z,-2.40
2018-03-17T17:53:20.512Z,-2.40
2018-03-17T17:55:48.881Z,-2.40
2018-03-17T17:58:17.221Z,-2.40
2018-03-17T18:00:45.565Z,-2.40
2018-03-17T18:03:13.947Z,-2.40
2018-03-17T18:05:42.294Z,-2.40
2018-03-17T18:08:10.628Z,-2.40
2018-03-17T18:10:38.972Z,-2.40
2018-03-17T18:13:07.409Z,-2.40
2018-03-17T18:15:35.751Z,-2.40
2018-03-17T18:18:04.105Z,-2.40
2018-03-17T18:20:32.454Z,-2.40
2018-03-17T18:23:00.775Z,-2.40
2018-03-17T18:25:29.108Z,-2.40
2018-03-17T18:27:57.456Z,-2.40
2018-03-17T18:30:25.788Z,-2.50
2018-03-17T18:32:54.138Z,-2.50
2018-03-17T18:35:22.463Z,-2.50
2018-03-17T18:37:50.798Z,-2.60
2018-03-17T18:40:19.152Z,-2.60
2018-03-17T18:42:47.504Z,-2.60
2018-03-17T18:45:15.822Z,-2.50
2018-03-17T18:47:44.165Z,-2.60
2018-03-17T18:50:12.483Z,-2.60
2018-03-17T18:52:40.832Z,-2.60
2018-03-17T18:55:09.154Z,-2.60
2018-03-17T18:57:37.506Z,-2.60
2018-03-17T19:00:05.835Z,-2.60
2018-03-17T19:02:34.184Z,-2.70
2018-03-17T19:05:02.509Z,-2.70
2018-03-17T19:07:30.860Z,-2.70
2018-03-17T19:09:59.194Z,-2.70
2018-03-17T19:12:27.537Z,-2.70
2018-03-17T19:14:55.858Z,-2.70
2018-03-17T19:17:24.199Z,-2.70
2018-03-17T19:19:52.527Z,-2.70
2018-03-17T19:22:21.019Z,-2.70
2018-03-17T19:24:49.371Z,-2.70
2018-03-17T19:27:17.743Z,-2.80
2018-03-17T19:29:46.059Z,-2.80
2018-03-17T19:32:14.416Z,-2.80
2018-03-17T19:34:42.743Z,-2.80
2018-03-17T19:37:11.079Z,-2.80
2018-03-17T19:39:39.421Z,-2.90
2018-03-17T19:42:07.763Z,-2.90
2018-03-17T19:44:36.114Z,-2.90
2018-03-17T19:47:04.460Z,-2.90
2018-03-17T19:49:32.824Z,-2.90
2018-03-17T19:52:01.177Z,-2.90
2018-03-17T19:54:29.490Z,-2.90
2018-03-17T19:56:57.841Z,-2.90
2018-03-17T19:59:26.163Z,-2.90
2018-03-17T20:01:54.513Z,-2.90
2018-03-17T20:04:22.852Z,-2.90
2018-03-17T20:06:51.208Z,-2.90
2018-03-17T20:09:19.528Z,-2.90
2018-03-17T20:11:47.875Z,-2.90
2018-03-17T20:14:16.212Z,-2.90
2018-03-17T20:16:44.529Z,-2.90
2018-03-17T20:19:12.882Z,-2.90
2018-03-17T20:21:41.208Z,-2.90
2018-03-17T20:24:09.567Z,-2.90
2018-03-17T20:26:37.913Z,-2.90
2018-03-17T20:29:06.259Z,-2.90
2018-03-17T20:31:34.577Z,-3.00
2018-03-17T20:34:02.927Z,-3.00
2018-03-17T20:36:31.266Z,-3.00
2018-03-17T20:38:59.664Z,-3.00
2018-03-17T20:41:28.004Z,-3.00
2018-03-17T20:43:56.346Z,-3.00
2018-03-17T20:46:24.718Z,-3.00
2018-03-17T20:48:53.091Z,-3.10
2018-03-17T20:51:21.469Z,-3.00
2018-03-17T20:53:49.862Z,-3.00
2018-03-17T20:56:18.179Z,-3.00
2018-03-17T20:58:46.547Z,-3.00
2018-03-17T21:01:14.862Z,-3.00
2018-03-17T21:03:43.208Z,-3.00
2018-03-17T21:06:11.540Z,-3.00
2018-03-17T21:08:39.893Z,-2.90
2018-03-17T21:11:08.214Z,-3.00
2018-03-17T21:13:36.565Z,-3.00
2018-03-17T21:16:04.919Z,-3.00
2018-03-17T21:18:33.255Z,-3.00
2018-03-17T21:21:01.576Z,-3.00
2018-03-17T21:23:29.916Z,-3.00
2018-03-17T21:25:58.239Z,-3.00
2018-03-17T21:28:26.587Z,-3.00
2018-03-17T21:30:55.047Z,-3.00
2018-03-17T21:33:23.386Z,-3.00
2018-03-17T21:35:51.701Z,-3.00
2018-03-17T21:38:20.052Z,-3.00
2018-03-17T21:40:48.375Z,-3.00
2018-03-17T21:43:16.727Z,-3.00
2018-03-17T21:45:45.066Z,-3.00
2018-03-17T21:48:13.436Z,-3.00
2018-03-17T21:50:41.767Z,-3.00
2018-03-17T21:53:10.114Z,-3.00
2018-03-17T21:55:38.449Z,-3.00
2018-03-17T21:58:06.779Z,-2.90
2018-03-17T22:00:35.128Z,-2.90
2018-03-17T22:03:03.447Z,-2.90
2018-03-17T22:05:31.784Z,-2.90
2018-03-17T22:08:00.099Z,-2.90
2018-03-17T22:10:28.438Z,-2.90
2018-03-17T22:12:55.991Z,-2.90
2018-03-17T22:15:24.329Z,-2.90
2018-03-17T22:17:52.644Z,-2.90
2018-03-17T22:20:20.991Z,-2.90
2018-03-17T22:22:49.371Z,-2.90
2018-03-17T22:25:17.681Z,-2.90
2018-03-17T22:27:46.012Z,-2.90
2018-03-17T22:30:14.360Z,-2.90
2018-03-17T22:32:42.686Z,-2.90
2018-03-17T22:35:10.255Z,-2.90
2018-03-17T22:37:38.587Z,-2.90
2018-03-17T22:40:06.924Z,-3.00
2018-03-17T22:42:35.243Z,-2.90
2018-03-17T22:45:03.584Z,-2.90
2018-03-17T22:47:31.911Z,-2.90
2018-03-17T22:50:00.259Z,-2.90
2018-03-17T22:52:28.593Z,-2.90
2018-03-17T22:54:56.969Z,-2.90
2018-03-17T22:57:25.293Z,-2.90
2018-03-17T22:59:53.631Z,-2.90
2018-03-17T23:02:21.950Z,-2.90
2018-03-17T23:04:50.299Z,-2.90
2018-03-17T23:07:18.617Z,-2.80
2018-03-17T23:09:46.951Z,-2.80
2018-03-17T23:12:15.271Z,-2.80
2018-03-17T23:14:43.619Z,-2.90
2018-03-17T23:17:11.946Z,-2.80
2018-03-17T23:19:40.295Z,-2.80
2018-03-17T23:22:08.963Z,-2.80
2018-03-17T23:24:37.308Z,-2.80
2018-03-17T23:27:05.635Z,-2.80
2018-03-17T23:29:33.986Z,-2.80
2018-03-17T23:32:02.324Z,-2.80
2018-03-17T23:34:30.667Z,-2.80
2018-03-17T23:36:58.982Z,-2.80
2018-03-17T23:39:27.345Z,-2.80
2018-03-17T23:41:55.665Z,-2.80
2018-03-17T23:44:23.988Z,-2.80
2018-03-17T23:46:51.567Z,-2.80
2018-03-17T23:49:19.886Z,-2.80
2018-03-17T23:51:48.258Z,-2.80
2018-03-17T23:54:16.589Z,-2.80
2018-03-17T23:56:44.937Z,-2.80
2018-03-17T23:59:13.267Z,-2.80
